Time;durP1;ratioP1;P1;durP2;ratioP2;P2;SDS_P1;SDS_P2;PMS_P1;PMS_P2;Temp;Humidity;BMP_temperature;BMP_pressure;BME280_temperature;BME280_humidity;BME280_pressure;Samples;Min_cycle;Max_cycle;Signal;HPM_P1;HPM_P2
2021/03/13 00:01:23;;;;;;;0.88;0.57;;;5.30;99.90;;;;;;5029465;28;20099;-74
2021/03/13 00:03:49;;;;;;;1.00;0.50;;;5.30;99.90;;;;;;5030849;28;20034;-74
2021/03/13 00:06:14;;;;;;;2.72;0.73;;;5.30;99.90;;;;;;5037517;28;20025;-74
2021/03/13 00:08:40;;;;;;;1.95;0.82;;;5.40;99.90;;;;;;5027794;28;20068;-74
2021/03/13 00:11:07;;;;;;;6.13;0.80;;;5.50;99.90;;;;;;5028248;28;20043;-73
2021/03/13 00:13:33;;;;;;;3.90;0.77;;;5.60;99.90;;;;;;5027310;28;20065;-73
2021/03/13 00:15:59;;;;;;;5.82;1.05;;;5.70;99.90;;;;;;5024373;28;20048;-73
2021/03/13 00:18:25;;;;;;;1.23;0.60;;;5.70;99.90;;;;;;5023949;28;20034;-73
2021/03/13 00:20:51;;;;;;;5.80;0.50;;;5.70;99.90;;;;;;5036736;28;20037;-72
2021/03/13 00:23:17;;;;;;;4.53;0.47;;;5.70;99.90;;;;;;5025921;28;20041;-73
2021/03/13 00:25:42;;;;;;;2.75;0.47;;;5.70;99.90;;;;;;5030279;28;20579;-73
2021/03/13 00:28:09;;;;;;;1.60;0.50;;;5.70;99.90;;;;;;5027701;28;20041;-73
2021/03/13 00:30:41;;;;;;;2.90;0.63;;;5.70;99.90;;;;;;5028948;28;20494;-73
2021/03/13 00:33:28;;;;;;;5.50;0.47;;;5.70;99.90;;;;;;5028971;28;20033;-73
2021/03/13 00:35:53;;;;;;;2.33;0.63;;;5.70;99.90;;;;;;5044675;28;20041;-73
2021/03/13 00:38:21;;;;;;;2.33;0.40;;;5.70;99.90;;;;;;5030888;28;20060;-73
2021/03/13 00:40:47;;;;;;;6.38;0.75;;;5.60;99.90;;;;;;5030489;28;20056;-73
2021/03/13 00:43:14;;;;;;;2.60;0.65;;;5.60;99.90;;;;;;5028645;28;20041;-73
2021/03/13 00:45:41;;;;;;;3.03;0.65;;;5.60;99.90;;;;;;5030331;28;20118;-73
2021/03/13 00:48:07;;;;;;;2.50;0.73;;;5.70;99.90;;;;;;5029322;28;20087;-73
2021/03/13 00:50:35;;;;;;;6.25;0.70;;;5.70;99.90;;;;;;5032342;28;20517;-73
2021/03/13 00:53:01;;;;;;;6.93;0.70;;;5.80;99.90;;;;;;5030134;28;20145;-73
2021/03/13 00:55:27;;;;;;;3.25;0.73;;;5.90;99.90;;;;;;5026867;28;20044;-74
2021/03/13 00:57:53;;;;;;;4.03;0.55;;;5.90;99.90;;;;;;5029143;28;20033;-74
2021/03/13 01:00:21;;;;;;;4.18;0.80;;;6.10;99.90;;;;;;5029584;28;20037;-74
2021/03/13 01:02:47;;;;;;;3.22;0.75;;;6.10;99.90;;;;;;5033321;28;20143;-73
2021/03/13 01:05:14;;;;;;;4.28;0.65;;;6.10;99.90;;;;;;5038463;28;20045;-75
2021/03/13 01:07:40;;;;;;;4.32;0.40;;;6.10;99.90;;;;;;5027929;28;20568;-74
2021/03/13 01:10:22;;;;;;;3.30;0.32;;;6.00;99.90;;;;;;5028733;28;20041;-75
2021/03/13 01:12:48;;;;;;;3.30;0.25;;;6.00;99.90;;;;;;5041110;28;20037;-75
2021/03/13 01:15:17;;;;;;;3.88;0.30;;;5.90;99.90;;;;;;5030276;28;20048;-76
2021/03/13 01:17:43;;;;;;;1.65;0.30;;;5.80;99.90;;;;;;5031658;28;20037;-76
2021/03/13 01:20:11;;;;;;;0.63;0.32;;;5.70;99.90;;;;;;5014917;28;20033;-76
2021/03/13 01:22:37;;;;;;;1.42;0.38;;;5.70;99.90;;;;;;5022209;28;20045;-76
2021/03/13 01:25:04;;;;;;;3.28;0.38;;;5.70;99.90;;;;;;4988804;28;20037;-76
2021/03/13 01:27:30;;;;;;;1.88;0.40;;;5.70;99.90;;;;;;4983825;28;20041;-76
2021/03/13 01:29:55;;;;;;;0.95;0.50;;;5.80;99.90;;;;;;4999131;28;20079;-77
2021/03/13 01:32:21;;;;;;;1.25;0.40;;;5.70;99.90;;;;;;4981051;28;20659;-77
2021/03/13 01:34:46;;;;;;;1.17;0.25;;;5.70;99.90;;;;;;4978546;28;20076;-77
2021/03/13 01:37:14;;;;;;;0.45;0.30;;;5.70;99.90;;;;;;5005978;28;20037;-77
2021/03/13 01:39:40;;;;;;;0.55;0.40;;;5.70;99.90;;;;;;4968855;28;20065;-77
2021/03/13 01:42:06;;;;;;;3.08;0.50;;;5.60;99.90;;;;;;5021744;28;20431;-76
2021/03/13 01:44:32;;;;;;;1.35;0.50;;;5.50;99.90;;;;;;4968310;28;20046;-76
2021/03/13 01:46:57;;;;;;;0.88;0.28;;;5.50;99.90;;;;;;4993311;28;20080;-76
2021/03/13 01:49:28;;;;;;;0.50;0.40;;;5.40;99.90;;;;;;5019502;28;20104;-76
2021/03/13 01:51:54;;;;;;;3.33;0.35;;;5.40;99.90;;;;;;5003833;28;20041;-76
2021/03/13 01:54:20;;;;;;;0.80;0.40;;;5.40;99.90;;;;;;4991525;28;20037;-76
2021/03/13 01:56:48;;;;;;;1.90;0.80;;;5.30;99.90;;;;;;5021400;28;20118;-76
2021/03/13 01:59:18;;;;;;;3.22;0.40;;;5.20;99.90;;;;;;5042355;28;20029;-76
2021/03/13 02:01:45;;;;;;;1.75;0.50;;;5.30;99.90;;;;;;4983457;28;20528;-76
2021/03/13 02:04:13;;;;;;;1.30;0.40;;;5.20;99.90;;;;;;4985283;28;20104;-76
2021/03/13 02:06:39;;;;;;;2.38;0.40;;;5.20;99.90;;;;;;4983309;28;20032;-76
2021/03/13 02:09:26;;;;;;;4.05;0.50;;;5.20;99.90;;;;;;5010876;28;20490;-76
2021/03/13 02:12:01;;;;;;;3.60;0.32;;;5.20;99.90;;;;;;5036208;28;20025;-76
2021/03/13 02:14:59;;;;;;;2.75;0.63;;;5.30;99.90;;;;;;5012852;28;20033;-76
2021/03/13 02:17:37;;;;;;;2.08;0.68;;;5.30;99.90;;;;;;5034927;28;20021;-76
2021/03/13 02:20:15;;;;;;;1.83;0.65;;;5.30;99.90;;;;;;5038264;28;20036;-76
2021/03/13 02:22:43;;;;;;;3.20;1.20;;;5.30;99.90;;;;;;5008432;28;20558;-76
2021/03/13 02:25:32;;;;;;;2.13;0.90;;;5.30;99.90;;;;;;5014840;28;20095;-76
2021/03/13 02:28:07;;;;;;;2.17;0.50;;;5.30;99.90;;;;;;4989355;28;20534;-76
2021/03/13 02:30:33;;;;;;;;;;;5.30;99.90;;;;;;5024959;28;20100;-76
2021/03/13 02:33:09;;;;;;;3.17;0.80;;;5.30;99.90;;;;;;5037345;28;20378;-76
2021/03/13 02:35:39;;;;;;;1.20;0.57;;;5.30;99.90;;;;;;4988562;28;20041;-76
2021/03/13 02:38:12;;;;;;;6.45;0.90;;;5.40;99.90;;;;;;5037097;28;20035;-76
2021/03/13 02:40:40;;;;;;;4.80;0.65;;;5.40;99.90;;;;;;5039714;28;20026;-76
2021/03/13 02:43:10;;;;;;;3.80;0.85;;;5.40;99.90;;;;;;5045104;28;20478;-76
2021/03/13 02:45:40;;;;;;;2.00;0.80;;;5.40;99.90;;;;;;5039695;28;20063;-76
2021/03/13 02:48:10;;;;;;;4.35;0.93;;;5.40;99.90;;;;;;5009398;28;20048;-76
2021/03/13 02:50:39;;;;;;;2.55;0.60;;;5.40;99.90;;;;;;5036464;28;20083;-76
2021/03/13 02:53:06;;;;;;;10.10;0.88;;;5.40;99.90;;;;;;5009969;28;20029;-76
2021/03/13 02:55:33;;;;;;;4.03;0.80;;;5.30;99.90;;;;;;5040592;28;20016;-76
2021/03/13 02:58:02;;;;;;;4.60;0.82;;;5.40;99.90;;;;;;5016587;28;20551;-76
2021/03/13 03:00:32;;;;;;;3.75;0.98;;;5.30;99.90;;;;;;5011734;28;20033;-76
2021/03/13 03:02:59;;;;;;;5.40;1.30;;;5.30;99.90;;;;;;5005802;28;20044;-76
2021/03/13 03:05:27;;;;;;;7.35;1.45;;;5.40;99.90;;;;;;4982396;28;20486;-77
2021/03/13 03:07:54;;;;;;;4.85;0.93;;;5.40;99.90;;;;;;5007066;28;20061;-77
2021/03/13 03:10:23;;;;;;;4.90;1.20;;;5.40;99.90;;;;;;4982022;28;20049;-77
2021/03/13 03:12:49;;;;;;;4.57;0.80;;;5.50;99.90;;;;;;5000388;28;20148;-77
2021/03/13 03:15:17;;;;;;;10.10;1.10;;;5.50;99.90;;;;;;4990330;28;20116;-77
2021/03/13 03:17:44;;;;;;;6.38;1.38;;;5.70;99.90;;;;;;5007745;28;20133;-77
2021/03/13 03:20:11;;;;;;;4.32;0.70;;;5.60;99.90;;;;;;5033640;28;20033;-77
2021/03/13 03:22:38;;;;;;;4.43;1.00;;;5.80;99.90;;;;;;5020281;28;20041;-77
2021/03/13 03:25:08;;;;;;;12.02;1.70;;;5.90;99.90;;;;;;4982376;28;20037;-77
2021/03/13 03:27:35;;;;;;;4.97;1.20;;;5.80;99.90;;;;;;5014892;28;20609;-77
2021/03/13 03:30:03;;;;;;;2.67;0.70;;;5.90;99.90;;;;;;5025399;28;20156;-77
2021/03/13 03:32:28;;;;;;;5.32;1.42;;;6.00;99.90;;;;;;5019393;28;20152;-77
2021/03/13 03:34:54;;;;;;;7.10;1.00;;;6.10;99.90;;;;;;5006745;28;20116;-77
2021/03/13 03:37:19;;;;;;;4.95;1.00;;;6.10;99.90;;;;;;5011913;28;20068;-77
2021/03/13 03:39:45;;;;;;;7.88;1.40;;;6.10;99.90;;;;;;4998958;28;20591;-77
2021/03/13 03:42:13;;;;;;;3.92;0.90;;;6.10;99.90;;;;;;5005056;28;20042;-77
2021/03/13 03:44:42;;;;;;;7.60;0.70;;;6.20;99.90;;;;;;5025158;28;20056;-78
2021/03/13 03:47:09;;;;;;;8.30;1.13;;;6.20;99.90;;;;;;5003237;28;20025;-77
2021/03/13 03:49:37;;;;;;;11.77;1.45;;;6.20;99.90;;;;;;5010103;28;20440;-77
2021/03/13 03:52:04;;;;;;;11.00;1.08;;;6.20;99.90;;;;;;5010677;28;20041;-77
2021/03/13 03:54:30;;;;;;;2.78;1.00;;;6.30;99.90;;;;;;5034590;28;20029;-77
2021/03/13 03:56:58;;;;;;;4.63;1.58;;;6.30;99.90;;;;;;5010738;28;20577;-77
2021/03/13 03:59:25;;;;;;;8.13;1.17;;;6.30;99.90;;;;;;4995074;28;20580;-77
2021/03/13 04:01:52;;;;;;;8.15;0.98;;;6.30;99.90;;;;;;5007892;28;20030;-77
2021/03/13 04:04:22;;;;;;;4.53;0.90;;;6.30;99.90;;;;;;4983732;28;20041;-77
2021/03/13 04:06:53;;;;;;;5.05;0.85;;;6.40;99.90;;;;;;5007050;28;20044;-77
2021/03/13 04:09:23;;;;;;;5.35;0.75;;;6.40;99.90;;;;;;4987034;28;20067;-77
2021/03/13 04:11:50;;;;;;;5.43;1.23;;;6.40;99.90;;;;;;5003449;28;20075;-77
2021/03/13 04:14:17;;;;;;;4.47;1.13;;;6.40;99.90;;;;;;5007174;28;20117;-77
2021/03/13 04:16:43;;;;;;;11.52;1.15;;;6.40;99.90;;;;;;5011147;28;20045;-77
2021/03/13 04:19:09;;;;;;;2.03;0.43;;;6.40;99.90;;;;;;5002193;28;20076;-77
2021/03/13 04:21:35;;;;;;;2.28;0.50;;;6.50;99.90;;;;;;5008690;28;20095;-77
2021/03/13 04:24:00;;;;;;;9.45;0.98;;;6.70;99.90;;;;;;5009244;28;20049;-77
2021/03/13 04:26:30;;;;;;;5.25;0.82;;;6.60;99.90;;;;;;5006664;28;20517;-77
2021/03/13 04:28:55;;;;;;;5.15;0.98;;;6.70;99.90;;;;;;5008410;28;20418;-77
2021/03/13 04:31:26;;;;;;;2.95;0.70;;;6.70;99.90;;;;;;5007882;28;20037;-77
2021/03/13 04:33:53;;;;;;;2.83;0.80;;;6.70;99.90;;;;;;5009239;28;20493;-77
2021/03/13 04:36:20;;;;;;;3.85;0.70;;;6.60;99.90;;;;;;4977933;28;20072;-77
2021/03/13 04:38:47;;;;;;;10.10;0.80;;;6.50;99.90;;;;;;4982672;28;20049;-76
2021/03/13 04:41:14;;;;;;;5.22;0.65;;;6.50;99.90;;;;;;5031460;28;20394;-76
2021/03/13 04:43:41;;;;;;;7.63;0.88;;;6.70;99.90;;;;;;4987871;28;20072;-76
2021/03/13 04:46:06;;;;;;;3.30;0.60;;;7.00;99.90;;;;;;5008127;28;20044;-76
2021/03/13 04:48:33;;;;;;;2.45;0.52;;;6.90;99.90;;;;;;5036680;28;20025;-76
2021/03/13 04:51:00;;;;;;;7.20;0.93;;;7.00;99.90;;;;;;5010511;28;20037;-76
2021/03/13 04:53:27;;;;;;;6.97;0.80;;;7.00;99.90;;;;;;5008484;28;20033;-75
2021/03/13 04:55:53;;;;;;;1.95;0.60;;;7.10;99.90;;;;;;5009209;28;20041;-75
2021/03/13 04:58:18;;;;;;;5.88;0.80;;;7.00;99.90;;;;;;5010975;28;20049;-75
2021/03/13 05:00:45;;;;;;;6.45;0.98;;;7.00;99.90;;;;;;5034995;28;20033;-75
2021/03/13 05:03:11;;;;;;;3.00;0.85;;;6.80;99.90;;;;;;5034798;28;20175;-75
2021/03/13 05:05:36;;;;;;;4.80;0.73;;;6.90;99.90;;;;;;5013808;28;20113;-75
2021/03/13 05:08:02;;;;;;;0.93;0.60;;;6.90;99.90;;;;;;5033892;28;20026;-75
2021/03/13 05:10:28;;;;;;;0.65;0.40;;;7.00;99.90;;;;;;5007612;28;20406;-75
2021/03/13 05:12:54;;;;;;;7.13;0.95;;;7.00;99.90;;;;;;5006001;28;20544;-74
2021/03/13 05:15:20;;;;;;;6.45;0.70;;;7.00;99.90;;;;;;5009758;28;20029;-75
2021/03/13 05:17:46;;;;;;;4.20;0.65;;;7.00;99.90;;;;;;5011171;28;20437;-75
2021/03/13 05:20:12;;;;;;;1.80;0.50;;;7.00;99.90;;;;;;4984544;28;20081;-75
2021/03/13 05:22:38;;;;;;;5.35;0.52;;;7.10;99.90;;;;;;5027760;28;20113;-75
2021/03/13 05:25:05;;;;;;;2.42;0.60;;;7.10;99.90;;;;;;5002515;28;20037;-75
2021/03/13 05:27:30;;;;;;;3.33;0.55;;;7.20;99.90;;;;;;5033371;28;20427;-75
2021/03/13 05:29:57;;;;;;;7.47;0.55;;;7.10;99.90;;;;;;4998129;28;20037;-76
2021/03/13 05:32:23;;;;;;;1.35;0.85;;;7.20;99.90;;;;;;5030904;28;20029;-75
2021/03/13 05:34:49;;;;;;;2.72;0.57;;;7.30;99.90;;;;;;5004741;28;20031;-75
2021/03/13 05:37:15;;;;;;;4.25;0.85;;;7.40;99.90;;;;;;4982496;28;20305;-75
2021/03/13 05:39:41;;;;;;;2.58;0.50;;;7.30;99.90;;;;;;4986722;28;20429;-75
2021/03/13 05:42:07;;;;;;;3.70;0.70;;;7.30;99.90;;;;;;4991137;28;20049;-76
2021/03/13 05:44:33;;;;;;;2.33;0.70;;;7.40;99.90;;;;;;4987191;28;20042;-76
2021/03/13 05:47:00;;;;;;;3.63;1.38;;;7.50;99.90;;;;;;5003137;28;20042;-76
2021/03/13 05:49:26;;;;;;;3.83;0.35;;;7.60;99.90;;;;;;4983692;28;20490;-75
2021/03/13 05:51:54;;;;;;;4.00;0.70;;;7.60;99.90;;;;;;5035493;28;20443;-75
2021/03/13 05:54:20;;;;;;;4.35;0.80;;;7.70;99.90;;;;;;5039080;28;20064;-75
2021/03/13 05:56:46;;;;;;;3.45;0.73;;;7.70;99.90;;;;;;5003828;28;20041;-76
2021/03/13 05:59:13;;;;;;;3.88;0.82;;;7.70;99.90;;;;;;5039505;28;20095;-75
2021/03/13 06:01:39;;;;;;;6.32;0.60;;;7.70;99.90;;;;;;5036306;28;20032;-76
2021/03/13 06:04:05;;;;;;;6.25;1.13;;;7.70;99.90;;;;;;5013007;28;20041;-76
2021/03/13 06:06:38;;;;;;;5.03;0.60;;;7.70;99.90;;;;;;4998740;28;20370;-76
2021/03/13 06:09:04;;;;;;;7.32;0.98;;;7.70;99.90;;;;;;5006574;28;20062;-76
2021/03/13 06:11:30;;;;;;;7.47;0.73;;;7.60;99.90;;;;;;5004369;28;20524;-76
2021/03/13 06:13:56;;;;;;;4.63;0.88;;;7.60;99.90;;;;;;4972148;28;20033;-77
2021/03/13 06:16:23;;;;;;;1.05;0.47;;;7.70;99.90;;;;;;4988439;28;20087;-76
2021/03/13 06:18:48;;;;;;;5.88;0.80;;;7.70;99.90;;;;;;4963401;28;20112;-77
2021/03/13 06:21:40;;;;;;;4.28;1.00;;;7.80;99.90;;;;;;4987072;28;20148;-77
2021/03/13 06:24:24;;;;;;;4.80;0.68;;;7.80;99.90;;;;;;4990421;28;20033;-76
2021/03/13 06:26:51;;;;;;;3.35;0.55;;;7.80;99.90;;;;;;4989565;28;20040;-77
2021/03/13 06:29:17;;;;;;;3.70;0.80;;;7.90;99.90;;;;;;4990124;28;20520;-76
2021/03/13 06:31:42;;;;;;;2.20;0.60;;;8.00;99.90;;;;;;5026671;28;20049;-76
2021/03/13 06:34:25;;;;;;;5.28;0.75;;;8.10;99.90;;;;;;5012636;28;20048;-76
2021/03/13 06:37:11;;;;;;;4.40;0.75;;;8.00;99.90;;;;;;4979314;28;20170;-76
2021/03/13 06:39:40;;;;;;;7.90;0.90;;;8.10;99.90;;;;;;4985028;28;20041;-77
2021/03/13 06:42:38;;;;;;;4.88;1.10;;;8.20;99.90;;;;;;5010088;28;20033;-76
2021/03/13 06:45:06;;;;;;;5.28;1.17;;;8.30;99.90;;;;;;4997100;28;20099;-76
2021/03/13 06:47:37;;;;;;;5.25;0.73;;;8.30;99.90;;;;;;5015247;28;20041;-77
2021/03/13 06:50:10;;;;;;;7.22;0.80;;;8.40;99.90;;;;;;4984743;28;20521;-77
2021/03/13 06:52:36;;;;;;;4.32;0.50;;;8.50;99.90;;;;;;5011963;28;20041;-77
2021/03/13 06:55:03;;;;;;;14.75;0.93;;;8.50;99.90;;;;;;5009106;28;20040;-78
2021/03/13 06:57:28;;;;;;;5.28;0.90;;;8.60;99.90;;;;;;5020854;28;20056;-76
2021/03/13 06:59:59;;;;;;;4.25;0.65;;;8.60;99.90;;;;;;4990300;28;20436;-76
2021/03/13 07:02:24;;;;;;;4.75;0.98;;;8.70;99.30;;;;;;4974150;28;20033;-75
2021/03/13 07:04:50;;;;;;;5.53;1.00;;;8.80;98.50;;;;;;5008507;28;20039;-76
2021/03/13 07:07:30;;;;;;;7.10;0.95;;;9.20;95.70;;;;;;4992366;28;20065;-78
2021/03/13 07:09:57;;;;;;;5.53;1.20;;;9.70;91.90;;;;;;4992606;28;20048;-78
2021/03/13 07:12:30;;;;;;;4.57;0.85;;;10.10;86.40;;;;;;5011970;28;20044;-77
2021/03/13 07:15:15;;;;;;;5.07;1.50;;;9.80;89.50;;;;;;4990805;28;20052;-78
2021/03/13 07:17:55;;;;;;;6.25;0.70;;;9.70;88.80;;;;;;5011419;28;20044;-78
2021/03/13 07:20:25;;;;;;;5.22;0.75;;;9.50;89.60;;;;;;5037513;28;20055;-78
2021/03/13 07:22:55;;;;;;;11.13;0.75;;;9.60;88.50;;;;;;5013750;28;20405;-78
2021/03/13 07:25:22;;;;;;;3.50;0.88;;;9.70;87.10;;;;;;5036824;28;20041;-77
2021/03/13 07:27:56;;;;;;;8.65;0.70;;;9.60;86.70;;;;;;5013283;28;20041;-78
2021/03/13 07:30:24;;;;;;;2.63;0.65;;;9.70;86.80;;;;;;4999823;28;20070;-77
2021/03/13 07:32:59;;;;;;;5.60;0.80;;;9.60;85.50;;;;;;5030216;28;20572;-78
2021/03/13 07:35:29;;;;;;;3.35;0.68;;;9.90;83.10;;;;;;5035677;28;20041;-77
2021/03/13 07:37:56;;;;;;;5.30;0.70;;;9.80;83.90;;;;;;5027860;28;20037;-78
2021/03/13 07:40:23;;;;;;;3.90;0.77;;;10.00;81.10;;;;;;5031707;28;20037;-76
2021/03/13 07:42:49;;;;;;;5.38;0.88;;;10.10;78.50;;;;;;5032905;28;20064;-76
2021/03/13 07:45:16;;;;;;;4.97;1.00;;;10.10;79.50;;;;;;5037338;28;20077;-76
2021/03/13 07:47:42;;;;;;;1.13;0.40;;;10.10;80.00;;;;;;5031916;28;20378;-75
2021/03/13 07:50:13;;;;;;;2.05;0.60;;;10.10;76.60;;;;;;5029289;28;20037;-76
2021/03/13 07:52:40;;;;;;;2.15;0.70;;;10.00;76.80;;;;;;5034762;28;20064;-76
2021/03/13 07:55:12;;;;;;;3.60;0.77;;;10.40;78.20;;;;;;5031232;28;20036;-76
2021/03/13 07:57:38;;;;;;;3.75;0.55;;;10.90;76.80;;;;;;5027141;28;20179;-76
2021/03/13 08:00:06;;;;;;;5.82;1.27;;;10.60;73.50;;;;;;5033665;28;20040;-77
2021/03/13 08:02:31;;;;;;;5.32;0.60;;;10.50;72.10;;;;;;5036307;28;20041;-76
2021/03/13 08:05:01;;;;;;;2.30;0.60;;;10.40;71.50;;;;;;5030063;28;20088;-75
2021/03/13 08:07:28;;;;;;;4.55;0.70;;;10.30;72.90;;;;;;5033129;28;20045;-76
2021/03/13 08:09:55;;;;;;;3.90;1.17;;;10.10;73.00;;;;;;5029602;28;20033;-76
2021/03/13 08:12:41;;;;;;;2.60;0.47;;;10.10;73.00;;;;;;5033142;28;20075;-75
2021/03/13 08:15:32;;;;;;;4.63;0.63;;;10.20;73.20;;;;;;5033437;28;20185;-77
2021/03/13 08:17:59;;;;;;;5.63;0.47;;;10.50;71.50;;;;;;5032945;28;20524;-76
2021/03/13 08:20:35;;;;;;;3.90;0.40;;;10.70;70.00;;;;;;5033242;28;20040;-76
2021/03/13 08:23:17;;;;;;;2.45;0.50;;;10.50;67.80;;;;;;5036136;28;20049;-76
2021/03/13 08:25:53;;;;;;;1.27;0.30;;;10.50;68.50;;;;;;5033956;28;20065;-76
2021/03/13 08:28:47;;;;;;;2.30;0.30;;;10.40;68.60;;;;;;5030835;28;20037;-76
2021/03/13 08:31:24;;;;;;;1.40;0.40;;;10.50;68.70;;;;;;5033819;28;20037;-77
2021/03/13 08:33:53;;;;;;;2.85;0.70;;;10.60;67.00;;;;;;5032374;28;20040;-77
2021/03/13 08:36:29;;;;;;;2.28;0.85;;;10.50;68.20;;;;;;5024215;28;20042;-76
2021/03/13 08:39:01;;;;;;;0.90;0.38;;;10.40;68.30;;;;;;5034245;28;20048;-77
2021/03/13 08:41:50;;;;;;;2.95;0.50;;;10.30;67.50;;;;;;5035336;28;20653;-79
2021/03/13 08:44:19;;;;;;;1.65;0.40;;;10.50;67.30;;;;;;5029583;28;20099;-77
2021/03/13 08:46:47;;;;;;;3.15;0.80;;;10.60;65.50;;;;;;5032474;28;20032;-75
2021/03/13 08:49:36;;;;;;;2.13;0.40;;;10.70;64.70;;;;;;5027487;28;20087;-77
2021/03/13 08:52:05;;;;;;;5.50;0.68;;;10.90;63.90;;;;;;5034208;28;20033;-76
2021/03/13 08:54:40;;;;;;;4.07;0.63;;;11.00;64.30;;;;;;5032845;28;20080;-77
2021/03/13 08:57:07;;;;;;;2.05;0.55;;;10.90;61.80;;;;;;5037193;28;20112;-77
2021/03/13 08:59:33;;;;;;;3.13;0.47;;;11.00;62.10;;;;;;5029590;28;20084;-78
2021/03/13 09:02:05;;;;;;;6.40;0.70;;;11.10;61.10;;;;;;5033337;28;20375;-77
2021/03/13 09:04:32;;;;;;;3.92;0.60;;;11.10;60.80;;;;;;5032310;28;20416;-77
2021/03/13 09:06:59;;;;;;;2.50;0.43;;;11.20;61.20;;;;;;5032347;28;20051;-77
2021/03/13 09:09:27;;;;;;;4.20;0.57;;;11.20;60.80;;;;;;5027416;28;20029;-77
2021/03/13 09:12:10;;;;;;;0.38;0.30;;;11.30;59.70;;;;;;5030860;28;20116;-77
2021/03/13 09:14:41;;;;;;;1.17;0.60;;;11.10;61.00;;;;;;5046395;28;20029;-81
2021/03/13 09:17:15;;;;;;;4.75;0.57;;;11.30;58.90;;;;;;5033816;28;20040;-79
2021/03/13 09:19:42;;;;;;;1.23;0.40;;;11.30;58.50;;;;;;5029897;28;20607;-80
2021/03/13 09:22:10;;;;;;;4.47;0.65;;;11.30;58.50;;;;;;5037331;28;20041;-81
2021/03/13 09:24:36;;;;;;;1.98;0.90;;;11.30;57.50;;;;;;5037008;28;20071;-79
2021/03/13 09:27:03;;;;;;;4.97;0.75;;;11.30;58.50;;;;;;5038822;28;20052;-80
2021/03/13 09:29:35;;;;;;;3.58;0.60;;;11.30;57.20;;;;;;5038795;28;20037;-79
2021/03/13 09:32:01;;;;;;;1.08;0.60;;;11.60;57.50;;;;;;5033128;28;20367;-80
2021/03/13 09:34:29;;;;;;;0.98;0.40;;;11.50;56.30;;;;;;5042535;28;20044;-80
2021/03/13 09:36:55;;;;;;;2.28;0.60;;;11.50;57.40;;;;;;5041421;28;20562;-80
2021/03/13 09:39:28;;;;;;;5.05;0.70;;;11.60;55.80;;;;;;5039276;28;20041;-80
2021/03/13 09:42:10;;;;;;;2.05;0.60;;;11.80;55.80;;;;;;5037778;28;20624;-80
2021/03/13 09:44:39;;;;;;;1.27;0.40;;;11.80;57.10;;;;;;5041577;28;20521;-80
2021/03/13 09:47:28;;;;;;;1.48;0.40;;;11.70;54.70;;;;;;5038964;28;20029;-80
2021/03/13 09:49:58;;;;;;;3.65;0.60;;;11.70;56.00;;;;;;5035817;28;20037;-80
2021/03/13 09:52:29;;;;;;;6.15;0.68;;;12.00;56.00;;;;;;5043127;28;20044;-79
2021/03/13 09:55:04;;;;;;;1.83;0.40;;;12.20;53.30;;;;;;5038104;28;20037;-80
2021/03/13 09:57:30;;;;;;;1.38;0.50;;;12.20;53.50;;;;;;5033492;28;20457;-80
2021/03/13 09:59:58;;;;;;;1.77;0.40;;;12.30;53.90;;;;;;5040187;28;20051;-81
2021/03/13 10:02:24;;;;;;;1.90;0.50;;;12.00;52.70;;;;;;5035664;28;20036;-80
2021/03/13 10:04:53;;;;;;;4.65;0.75;;;12.00;53.90;;;;;;5041401;28;20498;-80
2021/03/13 10:07:19;;;;;;;1.60;0.40;;;12.00;55.50;;;;;;5035049;28;20137;-80
2021/03/13 10:10:05;;;;;;;2.88;0.60;;;11.80;54.10;;;;;;5036034;28;20045;-82
2021/03/13 10:12:37;;;;;;;4.75;1.10;;;11.70;56.50;;;;;;5034923;28;20033;-80
2021/03/13 10:15:11;;;;;;;2.75;0.50;;;11.70;56.20;;;;;;5032287;28;20036;-79
2021/03/13 10:17:49;;;;;;;2.65;0.50;;;11.50;55.20;;;;;;5032761;28;20044;-78
2021/03/13 10:20:15;;;;;;;2.35;0.95;;;11.50;56.00;;;;;;5033516;28;20034;-80
2021/03/13 10:22:41;;;;;;;6.05;1.15;;;11.50;55.60;;;;;;5039713;28;20079;-77
2021/03/13 10:25:07;;;;;;;1.13;0.52;;;11.50;56.10;;;;;;5037872;28;20033;-77
2021/03/13 10:27:35;;;;;;;4.22;0.77;;;11.50;56.20;;;;;;5031770;28;20076;-78
2021/03/13 10:30:03;;;;;;;2.15;0.57;;;11.40;55.70;;;;;;5033335;28;20068;-77
2021/03/13 10:32:31;;;;;;;4.65;0.60;;;11.50;55.60;;;;;;5031871;28;20041;-78
2021/03/13 10:35:12;;;;;;;0.70;0.20;;;11.40;55.70;;;;;;5037217;28;20044;-77
2021/03/13 10:37:43;;;;;;;2.80;0.60;;;11.40;55.50;;;;;;5037595;28;20033;-77
2021/03/13 10:40:28;;;;;;;1.48;0.50;;;11.40;55.60;;;;;;5038285;28;20128;-76
2021/03/13 10:43:12;;;;;;;10.55;1.27;;;11.40;55.50;;;;;;5034946;28;20644;-77
2021/03/13 10:45:39;;;;;;;2.53;0.30;;;11.40;55.80;;;;;;5038438;28;20586;-78
2021/03/13 10:48:07;;;;;;;1.42;0.63;;;11.30;56.00;;;;;;5034243;28;20041;-77
2021/03/13 10:50:35;;;;;;;1.98;0.60;;;11.40;56.60;;;;;;5041081;28;20087;-78
2021/03/13 10:53:31;;;;;;;9.30;0.50;;;11.50;56.00;;;;;;5031740;28;20722;-77
2021/03/13 10:55:59;;;;;;;1.13;0.50;;;11.40;56.20;;;;;;5035123;28;20037;-78
2021/03/13 10:58:30;;;;;;;1.45;0.40;;;11.40;55.70;;;;;;5035032;28;20041;-77
2021/03/13 11:00:56;;;;;;;0.98;0.32;;;11.50;56.70;;;;;;5035737;28;20116;-76
2021/03/13 11:03:22;;;;;;;5.28;0.47;;;11.40;55.30;;;;;;5034961;28;20094;-76
2021/03/13 11:05:51;;;;;;;1.90;0.77;;;11.40;55.40;;;;;;5037546;28;20041;-76
2021/03/13 11:08:17;;;;;;;3.03;0.60;;;11.40;55.30;;;;;;5037799;28;20080;-76
2021/03/13 11:10:43;;;;;;;1.42;0.43;;;11.50;55.80;;;;;;5039548;28;20413;-77
2021/03/13 11:13:08;;;;;;;2.00;0.57;;;11.50;55.50;;;;;;5038367;28;20037;-77
2021/03/13 11:15:34;;;;;;;3.80;0.52;;;11.50;55.40;;;;;;5038803;28;22366;-76
2021/03/13 11:17:59;;;;;;;4.28;0.77;;;11.60;54.90;;;;;;5038423;28;20132;-77
2021/03/13 11:20:25;;;;;;;8.32;0.50;;;11.60;54.20;;;;;;5052536;28;20063;-76
2021/03/13 11:22:52;;;;;;;1.40;0.38;;;11.60;53.60;;;;;;5021527;28;20041;-78
2021/03/13 11:25:18;;;;;;;2.10;0.40;;;11.70;53.10;;;;;;5026693;28;20037;-78
2021/03/13 11:27:44;;;;;;;4.72;0.57;;;11.70;53.30;;;;;;5031283;28;20048;-77
2021/03/13 11:30:11;;;;;;;1.77;0.40;;;11.80;54.50;;;;;;5015845;28;20053;-76
2021/03/13 11:32:37;;;;;;;3.22;0.60;;;11.80;52.80;;;;;;5016511;28;20435;-77
2021/03/13 11:35:05;;;;;;;3.15;0.50;;;11.90;52.60;;;;;;5007795;28;20033;-76
2021/03/13 11:37:30;;;;;;;2.75;0.30;;;11.80;52.90;;;;;;5009110;28;20045;-77
2021/03/13 11:39:56;;;;;;;5.13;0.60;;;11.80;52.60;;;;;;5011473;28;20079;-77
2021/03/13 11:42:27;;;;;;;2.78;0.70;;;11.90;53.70;;;;;;5014035;28;20034;-76
2021/03/13 11:44:54;;;;;;;3.40;0.50;;;11.90;53.80;;;;;;5034187;28;20036;-76
2021/03/13 11:47:20;;;;;;;2.15;0.38;;;12.00;53.40;;;;;;5038769;28;20076;-76
2021/03/13 11:49:45;;;;;;;1.77;0.80;;;12.10;54.00;;;;;;5035053;28;20057;-76
2021/03/13 11:52:11;;;;;;;3.72;0.30;;;12.20;54.40;;;;;;5029639;28;20033;-77
2021/03/13 11:54:36;;;;;;;4.13;0.57;;;12.00;52.10;;;;;;5035839;28;20102;-77
2021/03/13 11:57:02;;;;;;;1.67;0.28;;;12.00;52.60;;;;;;5036743;28;20065;-76
2021/03/13 11:59:27;;;;;;;5.43;0.60;;;12.10;52.90;;;;;;5035775;28;20063;-77
2021/03/13 12:01:54;;;;;;;6.68;0.75;;;12.00;52.80;;;;;;5039420;28;20032;-77
2021/03/13 12:04:19;;;;;;;1.25;0.40;;;12.00;52.40;;;;;;5038340;28;20035;-77
2021/03/13 12:06:45;;;;;;;1.60;0.40;;;12.00;52.70;;;;;;5033863;28;20022;-77
2021/03/13 12:09:10;;;;;;;6.40;0.45;;;12.00;53.60;;;;;;5032790;28;20037;-78
2021/03/13 12:11:36;;;;;;;3.63;0.50;;;11.80;53.10;;;;;;5035523;28;20036;-77
2021/03/13 12:14:02;;;;;;;4.82;0.80;;;11.80;54.30;;;;;;5036390;28;20037;-77
2021/03/13 12:16:28;;;;;;;3.05;0.65;;;11.80;55.70;;;;;;5038237;28;20513;-77
2021/03/13 12:18:55;;;;;;;4.70;0.70;;;11.60;56.20;;;;;;5040211;28;20047;-78
2021/03/13 12:21:21;;;;;;;0.80;0.32;;;11.60;58.10;;;;;;5033008;28;20079;-76
2021/03/13 12:23:47;;;;;;;1.08;0.28;;;11.50;59.20;;;;;;5035176;28;20046;-77
2021/03/13 12:26:12;;;;;;;0.65;0.32;;;11.40;60.50;;;;;;5035264;28;20037;-76
2021/03/13 12:28:38;;;;;;;4.05;0.35;;;11.50;61.90;;;;;;5034778;28;20120;-76
2021/03/13 12:31:03;;;;;;;2.67;0.47;;;11.50;62.50;;;;;;5027520;28;20037;-76
2021/03/13 12:33:29;;;;;;;3.38;0.57;;;11.40;63.30;;;;;;5032720;28;20043;-75
2021/03/13 12:35:55;;;;;;;3.90;0.50;;;11.60;64.00;;;;;;5033269;28;20103;-76
2021/03/13 12:38:20;;;;;;;2.92;0.60;;;11.60;63.70;;;;;;5032604;28;20037;-77
2021/03/13 12:40:46;;;;;;;3.00;0.77;;;11.30;63.80;;;;;;5022615;28;20033;-75
2021/03/13 12:43:11;;;;;;;2.78;0.60;;;11.40;65.00;;;;;;5026681;28;20037;-78
2021/03/13 12:45:37;;;;;;;3.85;0.55;;;11.50;64.80;;;;;;5033376;28;20095;-76
2021/03/13 12:48:02;;;;;;;1.23;0.40;;;11.80;64.70;;;;;;5029942;28;20185;-77
2021/03/13 12:50:28;;;;;;;0.63;0.32;;;12.00;65.10;;;;;;5033236;28;20142;-78
2021/03/13 12:52:53;;;;;;;1.65;0.38;;;11.90;64.90;;;;;;5027921;28;20087;-78
2021/03/13 12:55:19;;;;;;;0.60;0.38;;;11.40;66.00;;;;;;5031513;28;20044;-78
2021/03/13 12:57:46;;;;;;;0.45;0.30;;;11.10;68.40;;;;;;5029876;28;20033;-77
2021/03/13 13:00:12;;;;;;;1.70;0.40;;;11.00;71.80;;;;;;5032729;28;20524;-78
2021/03/13 13:02:38;;;;;;;3.40;0.45;;;10.70;75.10;;;;;;5032672;28;20045;-77